createdAt,value
2018-11-11T00:00:10.363Z,101426.60
2018-11-11T00:02:39.282Z,101432.53
2018-11-11T00:05:07.037Z,101432.97
2018-11-11T00:07:35.368Z,101434.73
2018-11-11T00:10:03.712Z,101434.50
2018-11-11T00:12:32.632Z,101437.34
2018-11-11T00:15:00.387Z,101437.56
2018-11-11T00:17:28.722Z,101437.52
2018-11-11T00:19:57.640Z,101431.72
2018-11-11T00:22:25.994Z,101431.13
2018-11-11T00:24:54.341Z,101429.50
2018-11-11T00:27:22.090Z,101432.73
2018-11-11T00:29:50.421Z,101434.17
2018-11-11T00:32:19.334Z,101432.63
2018-11-11T00:34:47.672Z,101430.92
2018-11-11T00:37:15.493Z,101432.11
2018-11-11T00:39:44.444Z,101427.48
2018-11-11T00:42:12.169Z,101424.44
2018-11-11T00:44:41.084Z,101422.25
2018-11-11T00:47:09.427Z,101422.88
2018-11-11T00:49:37.195Z,101417.46
2018-11-11T00:52:06.111Z,101415.50
2018-11-11T00:54:34.451Z,101413.17
2018-11-11T00:57:02.794Z,101415.27
2018-11-11T00:59:31.124Z,101416.73
2018-11-11T01:01:59.471Z,101414.14
2018-11-11T01:04:27.225Z,101411.50
2018-11-11T01:06:56.147Z,101414.84
2018-11-11T01:09:24.480Z,101418.77
2018-11-11T01:11:52.243Z,101419.36
2018-11-11T01:14:21.164Z,101416.53
2018-11-11T01:16:48.917Z,101415.05
2018-11-11T01:19:17.251Z,101414.08
2018-11-11T01:21:45.593Z,101410.82
2018-11-11T01:24:14.505Z,101411.44
2018-11-11T01:26:42.253Z,101415.56
2018-11-11T01:29:11.175Z,101410.56
2018-11-11T01:31:39.536Z,101405.38
2018-11-11T01:34:07.293Z,101411.47
2018-11-11T01:36:36.253Z,101409.33
2018-11-11T01:39:04.005Z,101409.22
2018-11-11T01:41:32.925Z,101403.58
2018-11-11T01:44:00.681Z,101403.87
2018-11-11T01:46:29.013Z,101404.75
2018-11-11T01:48:57.926Z,101406.28
2018-11-11T01:51:25.685Z,101409.55
2018-11-11T01:53:54.024Z,101414.28
2018-11-11T01:56:22.984Z,101409.44
2018-11-11T01:58:51.337Z,101413.02
2018-11-11T02:01:19.673Z,101412.23
2018-11-11T02:03:48.006Z,101412.33
2018-11-11T02:06:16.341Z,101410.65
2018-11-11T02:08:44.673Z,101410.72
2018-11-11T02:11:13.021Z,101413.93
2018-11-11T02:13:41.935Z,101410.12
2018-11-11T02:16:10.269Z,101409.30
2018-11-11T02:18:38.618Z,101411.19
2018-11-11T02:21:06.976Z,101411.39
2018-11-11T02:23:35.291Z,101407.99
2018-11-11T02:26:03.115Z,101406.01
2018-11-11T02:28:31.376Z,101409.59
2018-11-11T02:31:00.280Z,101412.33
2018-11-11T02:33:28.597Z,101412.95
2018-11-11T02:35:56.937Z,101408.58
2018-11-11T02:38:24.728Z,101402.95
2018-11-11T02:40:53.057Z,101404.61
2018-11-11T02:43:21.975Z,101405.73
2018-11-11T02:45:49.719Z,101409.19
2018-11-11T02:48:18.648Z,101404.92
2018-11-11T02:50:46.388Z,101409.62
2018-11-11T02:53:15.300Z,101408.07
2018-11-11T02:55:43.633Z,101408.53
2018-11-11T02:58:11.953Z,101411.92
2018-11-11T03:00:39.693Z,101408.05
2018-11-11T03:03:08.598Z,101406.83
2018-11-11T03:05:36.338Z,101405.39
2018-11-11T03:08:04.659Z,101406.16
2018-11-11T03:10:33.559Z,101407.63
2018-11-11T03:13:01.494Z,101412.40
2018-11-11T03:15:30.138Z,101412.25
2018-11-11T03:17:57.965Z,101414.15
2018-11-11T03:20:26.872Z,101415.00
2018-11-11T03:22:55.189Z,101422.61
2018-11-11T03:25:23.513Z,101418.12
2018-11-11T03:27:51.267Z,101420.26
2018-11-11T03:30:19.593Z,101418.05
2018-11-11T03:32:47.928Z,101417.19
2018-11-11T03:35:16.829Z,101416.11
2018-11-11T03:37:45.143Z,101411.20
2018-11-11T03:40:13.513Z,101415.55
2018-11-11T03:42:41.253Z,101412.19
2018-11-11T03:45:10.162Z,101414.38
2018-11-11T03:47:37.899Z,101415.98
2018-11-11T03:50:06.805Z,101422.11
2018-11-11T03:52:35.142Z,101420.44
2018-11-11T03:55:02.893Z,101425.94
2018-11-11T03:57:31.802Z,101422.98
2018-11-11T04:00:00.125Z,101420.55
2018-11-11T04:02:27.879Z,101423.92
2018-11-11T04:04:56.204Z,101428.06
2018-11-11T04:07:25.367Z,101429.34
2018-11-11T04:09:53.690Z,101433.31
2018-11-11T04:12:22.594Z,101429.00
2018-11-11T04:14:50.920Z,101425.52
2018-11-11T04:17:19.243Z,101427.09
2018-11-11T04:19:46.981Z,101425.69
2018-11-11T04:22:15.311Z,101428.33
2018-11-11T04:24:44.212Z,101429.89
2018-11-11T04:27:12.535Z,101431.88
2018-11-11T04:29:40.860Z,101428.53
2018-11-11T04:32:08.604Z,101429.72
2018-11-11T04:34:36.916Z,101426.75
2018-11-11T04:37:05.813Z,101427.51
2018-11-11T04:39:33.559Z,101425.93
2018-11-11T04:42:01.935Z,101424.63
2018-11-11T04:44:30.257Z,101427.06
2018-11-11T04:46:59.438Z,101421.72
2018-11-11T04:49:27.199Z,101426.70
2018-11-11T04:51:55.525Z,101419.69
2018-11-11T04:54:24.427Z,101424.89
2018-11-11T04:56:52.181Z,101420.78
2018-11-11T04:59:21.088Z,101420.13
2018-11-11T05:01:49.409Z,101427.54
2018-11-11T05:04:17.732Z,101424.44
2018-11-11T05:06:47.053Z,101422.52
2018-11-11T05:09:14.125Z,101420.15
2018-11-11T05:11:42.476Z,101422.20
2018-11-11T05:14:10.798Z,101415.59
2018-11-11T05:16:39.135Z,101418.08
2018-11-11T05:19:07.464Z,101418.11
2018-11-11T05:21:35.785Z,101421.02
2018-11-11T05:24:04.099Z,101421.96
2018-11-11T05:26:32.438Z,101417.63
2018-11-11T05:29:01.159Z,101417.89
2018-11-11T05:31:29.079Z,101414.42
2018-11-11T05:33:57.922Z,101416.46
2018-11-11T05:36:26.304Z,101409.13
2018-11-11T05:38:54.633Z,101408.73
2018-11-11T05:41:22.959Z,101417.30
2018-11-11T05:43:51.328Z,101415.66
2018-11-11T05:46:19.649Z,101413.69
2018-11-11T05:48:47.401Z,101417.80
2018-11-11T05:51:16.332Z,101419.54
2018-11-11T05:53:44.563Z,101421.94
2018-11-11T05:56:13.472Z,101422.41
2018-11-11T05:58:41.798Z,101423.28
2018-11-11T06:01:10.124Z,101420.00
2018-11-11T06:03:38.441Z,101424.08
2018-11-11T06:06:06.773Z,101418.90
2018-11-11T06:08:35.089Z,101422.92
2018-11-11T06:11:02.838Z,101421.80
2018-11-11T06:13:31.153Z,101420.78
2018-11-11T06:15:59.476Z,101427.23
2018-11-11T06:18:28.378Z,101425.43
2018-11-11T06:20:56.115Z,101429.02
2018-11-11T06:23:24.443Z,101429.34
2018-11-11T06:25:52.783Z,101435.22
2018-11-11T06:28:21.101Z,101436.55
2018-11-11T06:30:50.005Z,101432.53
2018-11-11T06:33:18.327Z,101437.69
2018-11-11T06:35:46.652Z,101444.28
2018-11-11T06:38:14.389Z,101448.34
2018-11-11T06:40:43.303Z,101446.48
2018-11-11T06:43:11.631Z,101444.45
2018-11-11T06:45:40.002Z,101444.31
2018-11-11T06:48:08.370Z,101442.84
2018-11-11T06:50:36.681Z,101449.95
2018-11-11T06:53:05.031Z,101446.14
2018-11-11T06:55:32.777Z,101445.52
2018-11-11T06:58:01.153Z,101440.73
2018-11-11T07:00:30.005Z,101442.76
2018-11-11T07:03:01.686Z,101446.80
2018-11-11T07:05:30.045Z,101443.55
2018-11-11T07:07:58.373Z,101440.99
2018-11-11T07:10:26.705Z,101438.90
2018-11-11T07:12:55.613Z,101440.52
2018-11-11T07:15:23.932Z,101437.89
2018-11-11T07:17:51.679Z,101437.63
2018-11-11T07:20:20.009Z,101436.84
2018-11-11T07:22:48.924Z,101439.26
2018-11-11T07:25:16.672Z,101439.84
2018-11-11T07:27:45.565Z,101435.50
2018-11-11T07:30:13.885Z,101436.89
2018-11-11T07:32:42.201Z,101434.82
2018-11-11T07:35:10.518Z,101430.88
2018-11-11T07:37:38.867Z,101426.88
2018-11-11T07:40:07.209Z,101424.63
2018-11-11T07:42:35.530Z,101426.06
2018-11-11T07:45:03.281Z,101429.38
2018-11-11T07:47:31.638Z,101433.73
2018-11-11T07:49:59.968Z,101433.67
2018-11-11T07:52:28.889Z,101439.44
2018-11-11T07:54:57.552Z,101437.91
2018-11-11T07:57:24.984Z,101440.23
2018-11-11T07:59:53.900Z,101436.83
2018-11-11T08:02:21.816Z,101439.89
2018-11-11T08:04:49.984Z,101440.10
2018-11-11T08:07:18.893Z,101445.03
2018-11-11T08:09:47.225Z,101446.53
2018-11-11T08:12:14.973Z,101450.11
2018-11-11T08:14:43.299Z,101453.87
2018-11-11T08:17:11.629Z,101458.77
2018-11-11T08:19:40.540Z,101452.83
2018-11-11T08:22:08.871Z,101454.77
2018-11-11T08:24:36.620Z,101445.05
2018-11-11T08:27:05.664Z,101453.48
2018-11-11T08:29:33.432Z,101455.77
2018-11-11T08:32:02.476Z,101451.92
2018-11-11T08:34:30.744Z,101452.00
2018-11-11T08:36:58.485Z,101450.53
2018-11-11T08:39:27.401Z,101448.95
2018-11-11T08:41:55.739Z,101449.81
2018-11-11T08:44:23.476Z,101451.06
2018-11-11T08:46:51.799Z,101459.59
2018-11-11T08:49:20.165Z,101464.28
2018-11-11T08:51:48.488Z,101465.30
2018-11-11T08:54:16.875Z,101461.55
2018-11-11T08:56:45.735Z,101460.83
2018-11-11T08:59:14.068Z,101459.16
2018-11-11T09:01:42.649Z,101453.38
2018-11-11T09:04:10.195Z,101457.77
2018-11-11T09:06:38.517Z,101452.69
2018-11-11T09:09:07.427Z,101453.08
2018-11-11T09:11:35.848Z,101449.52
2018-11-11T09:14:03.512Z,101452.79
2018-11-11T09:16:31.852Z,101458.58
2018-11-11T09:19:00.185Z,101459.76
2018-11-11T09:21:29.244Z,101464.43
2018-11-11T09:23:56.848Z,101454.97
2018-11-11T09:26:25.773Z,101452.92
2018-11-11T09:28:54.099Z,101449.90
2018-11-11T09:31:23.029Z,101446.06
2018-11-11T09:33:51.387Z,101440.23
2018-11-11T09:36:19.719Z,101442.56
2018-11-11T09:38:48.084Z,101450.30
2018-11-11T09:41:16.385Z,101449.48
2018-11-11T09:43:44.714Z,101448.31
2018-11-11T09:46:13.040Z,101447.31
2018-11-11T09:48:40.798Z,101449.31
2018-11-11T09:51:09.770Z,101445.66
2018-11-11T09:53:38.098Z,101441.08
2018-11-11T09:56:06.810Z,101445.62
2018-11-11T09:58:35.182Z,101438.11
2018-11-11T10:01:03.473Z,101440.56
2018-11-11T10:03:31.807Z,101437.02
2018-11-11T10:06:00.140Z,101435.78
2018-11-11T10:08:28.472Z,101443.22
2018-11-11T10:10:56.822Z,101436.37
2018-11-11T10:13:25.476Z,101438.53
2018-11-11T10:15:53.817Z,101435.56
2018-11-11T10:18:23.081Z,101432.83
2018-11-11T10:20:51.498Z,101437.41
2018-11-11T10:23:20.337Z,101435.29
2018-11-11T10:25:47.486Z,101429.48
2018-11-11T10:28:16.411Z,101428.98
2018-11-11T10:30:44.748Z,101432.23
2018-11-11T10:33:13.310Z,101434.77
2018-11-11T10:35:41.647Z,101435.73
2018-11-11T10:38:10.639Z,101432.72
2018-11-11T10:40:38.967Z,101428.44
2018-11-11T10:43:07.296Z,101428.05
2018-11-11T10:45:35.631Z,101424.02
2018-11-11T10:48:03.980Z,101424.92
2018-11-11T10:50:31.777Z,101420.13
2018-11-11T10:53:00.740Z,101422.66
2018-11-11T10:55:28.490Z,101419.33
2018-11-11T10:57:57.402Z,101419.84
2018-11-11T11:00:25.859Z,101417.07
2018-11-11T11:02:53.502Z,101418.21
2018-11-11T11:05:22.423Z,101416.86
2018-11-11T11:07:52.213Z,101417.89
2018-11-11T11:10:19.441Z,101415.16
2018-11-11T11:12:47.180Z,101421.27
2018-11-11T11:15:16.089Z,101418.13
2018-11-11T11:17:43.836Z,101424.42
2018-11-11T11:20:12.183Z,101430.17
2018-11-11T11:22:41.142Z,101425.85
2018-11-11T11:25:09.435Z,101423.73
2018-11-11T11:27:37.774Z,101412.49
2018-11-11T11:30:06.343Z,101418.64
2018-11-11T11:32:34.449Z,101417.64
2018-11-11T11:35:02.217Z,101420.95
2018-11-11T11:37:31.161Z,101416.02
2018-11-11T11:39:58.926Z,101410.94
2018-11-11T11:42:27.254Z,101408.42
2018-11-11T11:44:56.162Z,101403.56
2018-11-11T11:47:23.977Z,101412.50
2018-11-11T11:49:52.854Z,101413.80
2018-11-11T11:52:21.226Z,101414.80
2018-11-11T11:54:48.926Z,101414.86
2018-11-11T11:57:17.851Z,101419.97
2018-11-11T11:59:46.196Z,101413.58
2018-11-11T12:02:14.052Z,101426.33
2018-11-11T12:04:42.908Z,101424.27
2018-11-11T12:07:10.651Z,101430.09
2018-11-11T12:09:39.564Z,101425.95
2018-11-11T12:12:07.899Z,101423.47
2018-11-11T12:14:36.237Z,101426.94
2018-11-11T12:17:04.024Z,101426.63
2018-11-11T12:19:32.906Z,101429.61
2018-11-11T12:22:00.662Z,101425.20
2018-11-11T12:24:29.581Z,101424.05
2018-11-11T12:26:57.915Z,101427.13
2018-11-11T12:29:25.685Z,101419.55
2018-11-11T12:31:54.605Z,101417.42
2018-11-11T12:34:22.933Z,101406.47
2018-11-11T12:36:50.682Z,101396.63
2018-11-11T12:39:19.677Z,101383.84
2018-11-11T12:41:47.928Z,101386.45
2018-11-11T12:44:16.269Z,101399.67
2018-11-11T12:46:44.622Z,101395.94
2018-11-11T12:49:12.993Z,101403.19
2018-11-11T12:51:40.794Z,101404.07
2018-11-11T12:54:09.637Z,101407.48
2018-11-11T12:56:38.023Z,101405.05
2018-11-11T12:59:05.801Z,101406.33
2018-11-11T13:01:34.709Z,101407.63
2018-11-11T13:04:02.451Z,101407.80
2018-11-11T13:06:30.769Z,101411.39
2018-11-11T13:08:59.672Z,101414.48
2018-11-11T13:11:27.454Z,101410.63
2018-11-11T13:13:56.344Z,101408.81
2018-11-11T13:16:24.640Z,101409.88
2018-11-11T13:18:52.962Z,101417.44
2018-11-11T13:21:21.283Z,101420.35
2018-11-11T13:23:49.025Z,101418.06
2018-11-11T13:26:17.348Z,101415.46
2018-11-11T13:28:46.256Z,101412.15
2018-11-11T13:31:13.992Z,101414.39
2018-11-11T13:33:42.316Z,101415.74
2018-11-11T13:36:10.644Z,101414.87
2018-11-11T13:38:40.134Z,101412.44
2018-11-11T13:41:08.186Z,101410.31
2018-11-11T13:43:35.978Z,101418.11
2018-11-11T13:46:04.316Z,101422.41
2018-11-11T13:48:33.218Z,101426.92
2018-11-11T13:51:00.973Z,101428.59
2018-11-11T13:53:29.867Z,101428.15
2018-11-11T13:55:58.264Z,101438.95
2018-11-11T13:58:26.991Z,101442.23
2018-11-11T14:00:54.498Z,101445.16
2018-11-11T14:03:23.394Z,101447.35
2018-11-11T14:05:51.142Z,101451.11
2018-11-11T14:08:19.507Z,101447.62
2018-11-11T14:10:48.447Z,101447.91
2018-11-11T14:13:16.733Z,101446.08
2018-11-11T14:15:45.071Z,101448.02
2018-11-11T14:18:12.925Z,101451.98
2018-11-11T14:20:41.155Z,101447.25
2018-11-11T14:23:09.494Z,101450.15
2018-11-11T14:25:38.525Z,101456.41
2018-11-11T14:28:06.817Z,101455.16
2018-11-11T14:30:34.564Z,101460.47
2018-11-11T14:33:03.485Z,101464.09
2018-11-11T14:35:31.857Z,101470.56
2018-11-11T14:37:59.604Z,101469.05
2018-11-11T14:40:28.514Z,101475.55
2018-11-11T14:42:56.845Z,101477.45
2018-11-11T14:45:24.593Z,101473.95
2018-11-11T14:47:52.955Z,101476.08
2018-11-11T14:50:21.866Z,101473.06
2018-11-11T14:52:49.577Z,101475.78
2018-11-11T14:55:18.599Z,101483.61
2018-11-11T14:57:46.883Z,101483.76
2018-11-11T15:00:15.254Z,101482.50
2018-11-11T15:02:43.587Z,101489.70
2018-11-11T15:05:11.901Z,101486.75
2018-11-11T15:07:40.225Z,101492.09
2018-11-11T15:10:08.554Z,101495.16
2018-11-11T15:12:36.875Z,101501.70
2018-11-11T15:15:05.242Z,101507.94
2018-11-11T15:17:33.591Z,101514.20
2018-11-11T15:20:02.131Z,101516.58
2018-11-11T15:22:29.677Z,101516.51
2018-11-11T15:24:59.478Z,101509.28
2018-11-11T15:27:27.224Z,101508.52
2018-11-11T15:29:56.155Z,101514.55
2018-11-11T15:32:23.896Z,101514.25
2018-11-11T15:34:52.215Z,101517.75
2018-11-11T15:37:21.117Z,101523.72
2018-11-11T15:39:49.441Z,101530.06
2018-11-11T15:42:17.828Z,101531.08
2018-11-11T15:44:45.587Z,101523.66
2018-11-11T15:47:13.850Z,101525.64
2018-11-11T15:49:42.221Z,101525.89
2018-11-11T15:52:11.234Z,101528.59
2018-11-11T15:54:39.444Z,101532.41
2018-11-11T15:57:07.714Z,101537.31
2018-11-11T15:59:36.124Z,101540.86
2018-11-11T16:02:04.805Z,101541.44
2018-11-11T16:04:33.110Z,101545.46
2018-11-11T16:07:01.759Z,101545.27
2018-11-11T16:09:30.096Z,101545.33
2018-11-11T16:11:58.416Z,101547.91
2018-11-11T16:14:27.562Z,101545.89
2018-11-11T16:16:56.205Z,101541.83
2018-11-11T16:19:24.548Z,101541.44
2018-11-11T16:21:58.173Z,101539.70
2018-11-11T16:24:26.555Z,101540.84
2018-11-11T16:26:54.316Z,101544.23
2018-11-11T16:29:23.235Z,101538.20
2018-11-11T16:31:51.566Z,101535.73
2018-11-11T16:34:19.938Z,101536.91
2018-11-11T16:36:47.681Z,101534.52
2018-11-11T16:39:15.967Z,101533.97
2018-11-11T16:41:44.282Z,101537.69
2018-11-11T16:44:13.197Z,101535.95
2018-11-11T16:46:40.943Z,101540.71
2018-11-11T16:49:09.275Z,101545.22
2018-11-11T16:51:38.252Z,101542.91
2018-11-11T16:54:06.541Z,101543.27
2018-11-11T16:56:34.272Z,101544.91
2018-11-11T16:59:02.601Z,101542.48
2018-11-11T17:01:30.923Z,101543.76
2018-11-11T17:03:59.877Z,101537.70
2018-11-11T17:06:28.239Z,101537.81
2018-11-11T17:08:56.100Z,101532.84
2018-11-11T17:11:25.024Z,101532.37
2018-11-11T17:13:53.362Z,101535.22
2018-11-11T17:16:21.770Z,101538.28
2018-11-11T17:18:50.095Z,101544.54
2018-11-11T17:21:18.473Z,101542.41
2018-11-11T17:23:46.794Z,101541.07
2018-11-11T17:26:14.545Z,101542.33
2018-11-11T17:28:43.474Z,101538.59
2018-11-11T17:31:11.222Z,101539.45
2018-11-11T17:33:39.569Z,101540.02
2018-11-11T17:36:08.540Z,101538.70
2018-11-11T17:38:36.816Z,101539.66
2018-11-11T17:41:05.144Z,101536.73
2018-11-11T17:43:33.483Z,101540.20
2018-11-11T17:46:01.233Z,101539.22
2018-11-11T17:48:29.571Z,101538.07
2018-11-11T17:50:57.886Z,101540.00
2018-11-11T17:53:26.799Z,101541.61
2018-11-11T17:55:54.565Z,101542.91
2018-11-11T17:58:22.885Z,101544.11
2018-11-11T18:00:51.937Z,101544.34
2018-11-11T18:03:20.284Z,101549.39
2018-11-11T18:05:48.616Z,101553.62
2018-11-11T18:08:16.371Z,101561.03
2018-11-11T18:10:44.771Z,101562.83
2018-11-11T18:13:13.632Z,101562.83
2018-11-11T18:15:41.378Z,101561.84
2018-11-11T18:18:09.737Z,101570.53
2018-11-11T18:20:38.171Z,101569.95
2018-11-11T18:23:07.027Z,101569.98
2018-11-11T18:25:36.356Z,101569.27
2018-11-11T18:28:04.755Z,101565.59
2018-11-11T18:30:32.432Z,101565.81
2018-11-11T18:33:00.762Z,101565.27
2018-11-11T18:35:29.734Z,101571.19
2018-11-11T18:37:57.463Z,101571.72
2018-11-11T18:40:25.796Z,101574.09
2018-11-11T18:42:54.923Z,101575.83
2018-11-11T18:45:22.730Z,101568.80
2018-11-11T18:47:51.661Z,101569.22
2018-11-11T18:50:19.402Z,101575.81
2018-11-11T18:52:47.738Z,101579.09
2018-11-11T18:55:16.652Z,101580.56
2018-11-11T18:57:44.605Z,101582.95
2018-11-11T19:00:12.808Z,101585.63
2018-11-11T19:02:41.672Z,101581.81
2018-11-11T19:05:10.018Z,101590.88
2018-11-11T19:07:38.447Z,101592.47
2018-11-11T19:10:06.202Z,101591.75
2018-11-11T19:12:34.468Z,101586.17
2018-11-11T19:15:02.816Z,101580.42
2018-11-11T19:17:32.644Z,101585.36
2018-11-11T19:20:01.002Z,101586.48
2018-11-11T19:22:29.341Z,101589.30
2018-11-11T19:24:57.706Z,101585.16
2018-11-11T19:27:26.143Z,101579.37
2018-11-11T19:29:54.447Z,101571.78
2018-11-11T19:32:23.095Z,101578.11
2018-11-11T19:34:50.849Z,101589.87
2018-11-11T19:37:19.185Z,101595.16
2018-11-11T19:39:48.165Z,101585.86
2018-11-11T19:42:16.516Z,101581.64
2018-11-11T19:44:44.898Z,101586.24
2018-11-11T19:47:13.236Z,101584.16
2018-11-11T19:49:40.994Z,101580.56
2018-11-11T19:52:09.360Z,101582.23
2018-11-11T19:54:38.290Z,101577.09
2018-11-11T19:57:09.890Z,101575.70
2018-11-11T19:59:36.400Z,101580.18
2018-11-11T20:02:04.771Z,101590.17
2018-11-11T20:04:33.225Z,101592.55
2018-11-11T20:07:02.381Z,101589.34
2018-11-11T20:09:30.743Z,101594.88
2018-11-11T20:11:59.066Z,101608.52
2018-11-11T20:14:27.401Z,101608.83
2018-11-11T20:16:55.757Z,101615.97
2018-11-11T20:19:24.100Z,101613.70
2018-11-11T20:21:52.439Z,101620.53
2018-11-11T20:24:20.890Z,101619.08
2018-11-11T20:26:49.222Z,101621.30
2018-11-11T20:29:17.579Z,101617.62
2018-11-11T20:31:46.095Z,101622.80
2018-11-11T20:34:14.423Z,101636.80
2018-11-11T20:36:42.699Z,101632.95
2018-11-11T20:39:11.038Z,101628.95
2018-11-11T20:41:39.463Z,101631.62
2018-11-11T20:44:07.832Z,101631.05
2018-11-11T20:46:35.708Z,101626.72
2018-11-11T20:49:04.706Z,101626.55
2018-11-11T20:51:33.086Z,101634.80
2018-11-11T20:54:01.413Z,101627.81
2018-11-11T20:56:29.908Z,101637.49
2018-11-11T20:58:58.635Z,101635.33
2018-11-11T21:01:27.211Z,101631.02
2018-11-11T21:03:55.666Z,101636.20
2018-11-11T21:06:24.092Z,101641.48
2018-11-11T21:08:51.878Z,101636.13
2018-11-11T21:11:23.037Z,101643.05
2018-11-11T21:13:51.613Z,101641.09
2018-11-11T21:16:20.004Z,101639.05
2018-11-11T21:18:48.509Z,101634.93
2018-11-11T21:21:20.183Z,101632.91
2018-11-11T21:23:45.963Z,101619.77
2018-11-11T21:26:14.633Z,101623.79
2018-11-11T21:28:42.772Z,101628.42
2018-11-11T21:31:11.101Z,101630.98
2018-11-11T21:33:39.441Z,101626.09
2018-11-11T21:36:07.841Z,101626.64
2018-11-11T21:38:36.137Z,101633.47
2018-11-11T21:41:03.934Z,101636.11
2018-11-11T21:43:32.838Z,101643.61
2018-11-11T21:46:00.652Z,101643.25
2018-11-11T21:48:29.555Z,101632.63
2018-11-11T21:50:57.529Z,101637.79
2018-11-11T21:53:25.881Z,101643.63
2018-11-11T21:55:55.185Z,101647.05
2018-11-11T21:58:22.838Z,101645.77
2018-11-11T22:00:51.648Z,101647.06
2018-11-11T22:03:20.356Z,101656.69
2018-11-11T22:05:49.426Z,101660.17
2018-11-11T22:08:17.184Z,101663.84
2018-11-11T22:10:46.137Z,101660.94
2018-11-11T22:13:14.530Z,101670.67
2018-11-11T22:15:42.900Z,101683.75
2018-11-11T22:18:10.722Z,101682.74
2018-11-11T22:20:40.080Z,101684.64
2018-11-11T22:23:09.093Z,101690.41
2018-11-11T22:25:37.566Z,101687.92
2018-11-11T22:28:06.361Z,101689.27
2018-11-11T22:30:35.118Z,101688.97
2018-11-11T22:33:03.588Z,101684.98
2018-11-11T22:35:32.185Z,101692.20
2018-11-11T22:38:01.336Z,101688.80
2018-11-11T22:40:29.872Z,101684.69
2018-11-11T22:42:58.478Z,101686.10
2018-11-11T22:45:26.961Z,101684.07
2018-11-11T22:47:56.315Z,101678.64
2018-11-11T22:50:24.915Z,101674.33
2018-11-11T22:52:54.271Z,101671.55
2018-11-11T22:55:23.973Z,101677.19
2018-11-11T22:57:52.432Z,101683.66
2018-11-11T23:00:21.697Z,101687.08
2018-11-11T23:02:50.035Z,101693.64
2018-11-11T23:05:18.372Z,101693.77
2018-11-11T23:07:46.703Z,101695.63
2018-11-11T23:10:14.450Z,101692.17
2018-11-11T23:12:43.469Z,101682.66
2018-11-11T23:15:11.220Z,101686.21
2018-11-11T23:17:39.556Z,101680.82
2018-11-11T23:20:08.517Z,101681.02
2018-11-11T23:22:36.300Z,101689.05
2018-11-11T23:25:05.207Z,101675.91
2018-11-11T23:27:33.594Z,101675.39
2018-11-11T23:30:01.343Z,101674.59
2018-11-11T23:32:29.672Z,101682.73
2018-11-11T23:34:58.937Z,101684.83
2018-11-11T23:37:26.987Z,101689.56
2018-11-11T23:39:55.729Z,101691.45
2018-11-11T23:42:24.057Z,101702.31
2018-11-11T23:44:51.831Z,101699.95
2018-11-11T23:47:20.897Z,101696.52
2018-11-11T23:49:48.699Z,101689.46
2018-11-11T23:52:17.097Z,101680.98
2018-11-11T23:54:45.433Z,101687.99
2018-11-11T23:57:14.375Z,101690.72
2018-11-11T23:59:42.711Z,101699.00
